sensor_id;sensor_type;location;lat;lon;timestamp;P1;durP1;ratioP1;P2;durP2;ratioP2
33206;SDS011;19565;46.602;11.534;2023-07-24T00:00:47;3.78;;;2.85;;
33206;SDS011;19565;46.602;11.534;2023-07-24T00:03:15;4.10;;;2.15;;
33206;SDS011;19565;46.602;11.534;2023-07-24T00:05:43;5.43;;;3.03;;
33206;SDS011;19565;46.602;11.534;2023-07-24T00:08:11;9.80;;;5.47;;
33206;SDS011;19565;46.602;11.534;2023-07-24T00:10:39;4.68;;;3.05;;
33206;SDS011;19565;46.602;11.534;2023-07-24T00:13:07;5.53;;;3.95;;
33206;SDS011;19565;46.602;11.534;2023-07-24T00:15:38;6.82;;;4.85;;
33206;SDS011;19565;46.602;11.534;2023-07-24T00:18:06;4.65;;;2.55;;
33206;SDS011;19565;46.602;11.534;2023-07-24T00:20:34;7.32;;;2.63;;
33206;SDS011;19565;46.602;11.534;2023-07-24T00:23:02;5.10;;;3.88;;
33206;SDS011;19565;46.602;11.534;2023-07-24T00:25:30;3.45;;;2.47;;
33206;SDS011;19565;46.602;11.534;2023-07-24T00:27:58;3.20;;;2.55;;
33206;SDS011;19565;46.602;11.534;2023-07-24T00:30:26;5.35;;;2.97;;
33206;SDS011;19565;46.602;11.534;2023-07-24T00:32:55;7.00;;;3.95;;
33206;SDS011;19565;46.602;11.534;2023-07-24T00:35:24;6.45;;;3.00;;
33206;SDS011;19565;46.602;11.534;2023-07-24T00:37:52;3.40;;;2.67;;
33206;SDS011;19565;46.602;11.534;2023-07-24T00:40:21;4.80;;;2.20;;
33206;SDS011;19565;46.602;11.534;2023-07-24T00:42:49;6.43;;;3.42;;
33206;SDS011;19565;46.602;11.534;2023-07-24T00:45:17;7.20;;;4.22;;
33206;SDS011;19565;46.602;11.534;2023-07-24T00:47:45;4.55;;;2.63;;
33206;SDS011;19565;46.602;11.534;2023-07-24T00:50:14;6.80;;;2.72;;
33206;SDS011;19565;46.602;11.534;2023-07-24T00:52:43;7.15;;;3.15;;
33206;SDS011;19565;46.602;11.534;2023-07-24T00:55:11;6.07;;;3.50;;
33206;SDS011;19565;46.602;11.534;2023-07-24T00:57:43;5.03;;;2.90;;
33206;SDS011;19565;46.602;11.534;2023-07-24T01:00:11;7.88;;;3.67;;
33206;SDS011;19565;46.602;11.534;2023-07-24T01:02:40;4.25;;;2.70;;
33206;SDS011;19565;46.602;11.534;2023-07-24T01:05:08;5.57;;;2.92;;
33206;SDS011;19565;46.602;11.534;2023-07-24T01:07:39;6.43;;;3.90;;
33206;SDS011;19565;46.602;11.534;2023-07-24T01:10:08;7.85;;;3.00;;
33206;SDS011;19565;46.602;11.534;2023-07-24T01:12:39;6.03;;;3.65;;
33206;SDS011;19565;46.602;11.534;2023-07-24T01:15:13;4.32;;;3.00;;
33206;SDS011;19565;46.602;11.534;2023-07-24T01:17:48;4.97;;;3.67;;
33206;SDS011;19565;46.602;11.534;2023-07-24T01:20:20;5.90;;;4.22;;
33206;SDS011;19565;46.602;11.534;2023-07-24T01:22:57;4.03;;;3.13;;
33206;SDS011;19565;46.602;11.534;2023-07-24T01:25:44;5.82;;;3.00;;
33206;SDS011;19565;46.602;11.534;2023-07-24T01:28:18;5.78;;;2.83;;
33206;SDS011;19565;46.602;11.534;2023-07-24T01:30:46;4.47;;;2.85;;
33206;SDS011;19565;46.602;11.534;2023-07-24T01:33:14;7.97;;;4.00;;
33206;SDS011;19565;46.602;11.534;2023-07-24T01:35:42;6.15;;;3.33;;
33206;SDS011;19565;46.602;11.534;2023-07-24T01:38:11;3.22;;;2.83;;
33206;SDS011;19565;46.602;11.534;2023-07-24T01:40:40;5.30;;;3.75;;
33206;SDS011;19565;46.602;11.534;2023-07-24T01:43:11;5.78;;;4.72;;
33206;SDS011;19565;46.602;11.534;2023-07-24T01:45:39;5.68;;;3.45;;
33206;SDS011;19565;46.602;11.534;2023-07-24T01:48:07;5.57;;;4.47;;
33206;SDS011;19565;46.602;11.534;2023-07-24T01:50:35;6.60;;;4.55;;
33206;SDS011;19565;46.602;11.534;2023-07-24T01:53:03;9.73;;;2.78;;
33206;SDS011;19565;46.602;11.534;2023-07-24T01:55:31;3.53;;;2.72;;
33206;SDS011;19565;46.602;11.534;2023-07-24T01:57:59;7.25;;;3.83;;
33206;SDS011;19565;46.602;11.534;2023-07-24T02:00:28;3.38;;;2.30;;
33206;SDS011;19565;46.602;11.534;2023-07-24T02:02:57;3.70;;;3.25;;
33206;SDS011;19565;46.602;11.534;2023-07-24T02:05:25;4.38;;;3.38;;
33206;SDS011;19565;46.602;11.534;2023-07-24T02:07:53;4.85;;;3.35;;
33206;SDS011;19565;46.602;11.534;2023-07-24T02:10:21;7.95;;;4.40;;
33206;SDS011;19565;46.602;11.534;2023-07-24T02:12:49;9.10;;;3.25;;
33206;SDS011;19565;46.602;11.534;2023-07-24T02:15:17;4.60;;;2.88;;
33206;SDS011;19565;46.602;11.534;2023-07-24T02:17:46;7.13;;;4.30;;
33206;SDS011;19565;46.602;11.534;2023-07-24T02:20:14;9.25;;;4.28;;
33206;SDS011;19565;46.602;11.534;2023-07-24T02:22:42;3.58;;;2.35;;
33206;SDS011;19565;46.602;11.534;2023-07-24T02:25:10;5.10;;;3.00;;
33206;SDS011;19565;46.602;11.534;2023-07-24T02:27:38;1.92;;;1.73;;
33206;SDS011;19565;46.602;11.534;2023-07-24T02:30:07;5.18;;;3.65;;
33206;SDS011;19565;46.602;11.534;2023-07-24T02:32:35;5.93;;;3.30;;
33206;SDS011;19565;46.602;11.534;2023-07-24T02:35:06;2.13;;;1.60;;
33206;SDS011;19565;46.602;11.534;2023-07-24T02:37:34;4.95;;;2.10;;
33206;SDS011;19565;46.602;11.534;2023-07-24T02:40:02;3.10;;;2.05;;
33206;SDS011;19565;46.602;11.534;2023-07-24T02:42:31;4.57;;;3.50;;
33206;SDS011;19565;46.602;11.534;2023-07-24T02:44:59;7.80;;;2.70;;
33206;SDS011;19565;46.602;11.534;2023-07-24T02:47:27;4.88;;;2.97;;
33206;SDS011;19565;46.602;11.534;2023-07-24T02:49:55;3.88;;;2.85;;
33206;SDS011;19565;46.602;11.534;2023-07-24T02:52:24;3.17;;;2.70;;
33206;SDS011;19565;46.602;11.534;2023-07-24T02:54:52;4.50;;;2.28;;
33206;SDS011;19565;46.602;11.534;2023-07-24T02:57:20;4.13;;;3.38;;
33206;SDS011;19565;46.602;11.534;2023-07-24T02:59:48;3.10;;;2.80;;
33206;SDS011;19565;46.602;11.534;2023-07-24T03:02:16;3.97;;;3.55;;
33206;SDS011;19565;46.602;11.534;2023-07-24T03:04:44;4.20;;;2.65;;
33206;SDS011;19565;46.602;11.534;2023-07-24T03:07:12;7.65;;;2.25;;
33206;SDS011;19565;46.602;11.534;2023-07-24T03:09:42;8.52;;;4.35;;
33206;SDS011;19565;46.602;11.534;2023-07-24T03:12:10;7.25;;;3.67;;
33206;SDS011;19565;46.602;11.534;2023-07-24T03:14:38;4.40;;;2.90;;
33206;SDS011;19565;46.602;11.534;2023-07-24T03:17:06;7.40;;;3.05;;
33206;SDS011;19565;46.602;11.534;2023-07-24T03:19:34;7.30;;;3.75;;
33206;SDS011;19565;46.602;11.534;2023-07-24T03:22:02;9.85;;;3.92;;
33206;SDS011;19565;46.602;11.534;2023-07-24T03:24:30;4.10;;;2.97;;
33206;SDS011;19565;46.602;11.534;2023-07-24T03:27:00;4.57;;;3.58;;
33206;SDS011;19565;46.602;11.534;2023-07-24T03:29:28;5.70;;;3.03;;
33206;SDS011;19565;46.602;11.534;2023-07-24T03:31:56;4.85;;;3.05;;
33206;SDS011;19565;46.602;11.534;2023-07-24T03:34:24;6.43;;;3.20;;
33206;SDS011;19565;46.602;11.534;2023-07-24T03:36:52;5.47;;;3.38;;
33206;SDS011;19565;46.602;11.534;2023-07-24T03:39:20;4.28;;;3.50;;
33206;SDS011;19565;46.602;11.534;2023-07-24T03:41:48;7.68;;;3.95;;
33206;SDS011;19565;46.602;11.534;2023-07-24T03:44:18;4.10;;;2.25;;
33206;SDS011;19565;46.602;11.534;2023-07-24T03:46:46;7.05;;;3.55;;
33206;SDS011;19565;46.602;11.534;2023-07-24T03:49:14;4.35;;;2.95;;
33206;SDS011;19565;46.602;11.534;2023-07-24T03:51:42;5.90;;;2.45;;
33206;SDS011;19565;46.602;11.534;2023-07-24T03:54:10;4.57;;;3.63;;
33206;SDS011;19565;46.602;11.534;2023-07-24T03:56:38;8.73;;;2.97;;
33206;SDS011;19565;46.602;11.534;2023-07-24T03:59:06;4.15;;;2.88;;
33206;SDS011;19565;46.602;11.534;2023-07-24T04:01:35;4.60;;;3.20;;
33206;SDS011;19565;46.602;11.534;2023-07-24T04:04:03;3.00;;;2.05;;
33206;SDS011;19565;46.602;11.534;2023-07-24T04:06:31;7.20;;;2.83;;
33206;SDS011;19565;46.602;11.534;2023-07-24T04:08:59;6.38;;;3.92;;
33206;SDS011;19565;46.602;11.534;2023-07-24T04:11:27;7.10;;;4.85;;
33206;SDS011;19565;46.602;11.534;2023-07-24T04:13:55;2.55;;;2.10;;
33206;SDS011;19565;46.602;11.534;2023-07-24T04:16:23;7.55;;;4.82;;
33206;SDS011;19565;46.602;11.534;2023-07-24T04:18:56;4.47;;;3.60;;
33206;SDS011;19565;46.602;11.534;2023-07-24T04:21:24;8.50;;;4.00;;
33206;SDS011;19565;46.602;11.534;2023-07-24T04:23:52;5.97;;;3.13;;
33206;SDS011;19565;46.602;11.534;2023-07-24T04:26:20;5.45;;;3.80;;
33206;SDS011;19565;46.602;11.534;2023-07-24T04:28:48;6.05;;;2.88;;
33206;SDS011;19565;46.602;11.534;2023-07-24T04:31:16;4.85;;;2.78;;
33206;SDS011;19565;46.602;11.534;2023-07-24T04:33:44;8.82;;;3.50;;
33206;SDS011;19565;46.602;11.534;2023-07-24T04:36:13;4.78;;;2.90;;
33206;SDS011;19565;46.602;11.534;2023-07-24T04:38:43;4.40;;;1.98;;
33206;SDS011;19565;46.602;11.534;2023-07-24T04:41:12;5.25;;;3.50;;
33206;SDS011;19565;46.602;11.534;2023-07-24T04:43:40;6.70;;;5.65;;
33206;SDS011;19565;46.602;11.534;2023-07-24T04:46:08;6.63;;;4.78;;
33206;SDS011;19565;46.602;11.534;2023-07-24T04:48:36;4.88;;;3.47;;
33206;SDS011;19565;46.602;11.534;2023-07-24T04:51:05;9.60;;;3.30;;
33206;SDS011;19565;46.602;11.534;2023-07-24T04:53:34;9.88;;;4.20;;
33206;SDS011;19565;46.602;11.534;2023-07-24T04:56:02;3.50;;;2.92;;
33206;SDS011;19565;46.602;11.534;2023-07-24T04:58:30;8.63;;;4.15;;
33206;SDS011;19565;46.602;11.534;2023-07-24T05:01:01;4.25;;;3.60;;
33206;SDS011;19565;46.602;11.534;2023-07-24T05:03:30;6.47;;;4.93;;
33206;SDS011;19565;46.602;11.534;2023-07-24T05:05:58;4.82;;;3.38;;
33206;SDS011;19565;46.602;11.534;2023-07-24T05:08:26;6.32;;;4.38;;
33206;SDS011;19565;46.602;11.534;2023-07-24T05:10:55;5.53;;;3.67;;
33206;SDS011;19565;46.602;11.534;2023-07-24T05:13:25;6.75;;;3.72;;
33206;SDS011;19565;46.602;11.534;2023-07-24T05:15:53;5.95;;;4.95;;
33206;SDS011;19565;46.602;11.534;2023-07-24T05:18:21;8.68;;;3.92;;
33206;SDS011;19565;46.602;11.534;2023-07-24T05:20:49;4.82;;;2.15;;
33206;SDS011;19565;46.602;11.534;2023-07-24T05:23:18;6.07;;;3.50;;
33206;SDS011;19565;46.602;11.534;2023-07-24T05:25:46;7.35;;;3.65;;
33206;SDS011;19565;46.602;11.534;2023-07-24T05:28:15;7.55;;;4.68;;
33206;SDS011;19565;46.602;11.534;2023-07-24T05:30:44;7.93;;;4.47;;
33206;SDS011;19565;46.602;11.534;2023-07-24T05:33:11;5.30;;;3.88;;
33206;SDS011;19565;46.602;11.534;2023-07-24T05:35:39;5.63;;;4.03;;
33206;SDS011;19565;46.602;11.534;2023-07-24T05:38:09;3.03;;;2.80;;
33206;SDS011;19565;46.602;11.534;2023-07-24T05:40:37;5.22;;;3.30;;
33206;SDS011;19565;46.602;11.534;2023-07-24T05:43:05;10.90;;;3.97;;
33206;SDS011;19565;46.602;11.534;2023-07-24T05:45:35;5.65;;;3.95;;
33206;SDS011;19565;46.602;11.534;2023-07-24T05:48:03;9.10;;;3.67;;
33206;SDS011;19565;46.602;11.534;2023-07-24T05:50:31;6.47;;;4.10;;
33206;SDS011;19565;46.602;11.534;2023-07-24T05:52:59;7.38;;;5.35;;
33206;SDS011;19565;46.602;11.534;2023-07-24T05:55:27;5.25;;;3.38;;
33206;SDS011;19565;46.602;11.534;2023-07-24T05:57:55;12.13;;;6.03;;
33206;SDS011;19565;46.602;11.534;2023-07-24T06:00:23;6.97;;;5.28;;
33206;SDS011;19565;46.602;11.534;2023-07-24T06:02:53;8.10;;;5.57;;
33206;SDS011;19565;46.602;11.534;2023-07-24T06:05:22;5.00;;;3.13;;
33206;SDS011;19565;46.602;11.534;2023-07-24T06:07:50;4.68;;;4.03;;
33206;SDS011;19565;46.602;11.534;2023-07-24T06:10:18;9.73;;;5.57;;
33206;SDS011;19565;46.602;11.534;2023-07-24T06:12:46;6.80;;;3.90;;
33206;SDS011;19565;46.602;11.534;2023-07-24T06:15:14;3.13;;;2.35;;
33206;SDS011;19565;46.602;11.534;2023-07-24T06:17:42;6.97;;;4.75;;
33206;SDS011;19565;46.602;11.534;2023-07-24T06:20:12;7.30;;;4.25;;
33206;SDS011;19565;46.602;11.534;2023-07-24T06:22:40;4.60;;;3.05;;
33206;SDS011;19565;46.602;11.534;2023-07-24T06:25:08;5.65;;;3.70;;
33206;SDS011;19565;46.602;11.534;2023-07-24T06:27:36;6.95;;;4.03;;
33206;SDS011;19565;46.602;11.534;2023-07-24T06:30:05;6.63;;;3.35;;
33206;SDS011;19565;46.602;11.534;2023-07-24T06:32:41;7.43;;;5.93;;
33206;SDS011;19565;46.602;11.534;2023-07-24T06:35:11;8.60;;;5.03;;
33206;SDS011;19565;46.602;11.534;2023-07-24T06:37:39;5.75;;;4.25;;
33206;SDS011;19565;46.602;11.534;2023-07-24T06:40:07;6.97;;;5.28;;
33206;SDS011;19565;46.602;11.534;2023-07-24T06:42:36;4.55;;;3.40;;
33206;SDS011;19565;46.602;11.534;2023-07-24T06:45:05;6.45;;;3.83;;
33206;SDS011;19565;46.602;11.534;2023-07-24T06:47:34;4.10;;;3.17;;
33206;SDS011;19565;46.602;11.534;2023-07-24T06:50:02;9.70;;;5.18;;
33206;SDS011;19565;46.602;11.534;2023-07-24T06:52:32;9.57;;;5.40;;
33206;SDS011;19565;46.602;11.534;2023-07-24T06:55:00;4.25;;;3.35;;
33206;SDS011;19565;46.602;11.534;2023-07-24T06:57:28;4.80;;;2.95;;
33206;SDS011;19565;46.602;11.534;2023-07-24T06:59:56;6.13;;;4.40;;
33206;SDS011;19565;46.602;11.534;2023-07-24T07:02:24;6.60;;;4.70;;
33206;SDS011;19565;46.602;11.534;2023-07-24T07:04:54;8.10;;;4.95;;
33206;SDS011;19565;46.602;11.534;2023-07-24T07:07:22;7.05;;;6.45;;
33206;SDS011;19565;46.602;11.534;2023-07-24T07:09:52;5.68;;;5.10;;
33206;SDS011;19565;46.602;11.534;2023-07-24T07:12:20;6.45;;;4.90;;
33206;SDS011;19565;46.602;11.534;2023-07-24T07:14:48;5.07;;;3.42;;
33206;SDS011;19565;46.602;11.534;2023-07-24T07:17:16;6.60;;;5.50;;
33206;SDS011;19565;46.602;11.534;2023-07-24T07:19:44;10.43;;;5.15;;
33206;SDS011;19565;46.602;11.534;2023-07-24T07:22:12;5.22;;;4.75;;
33206;SDS011;19565;46.602;11.534;2023-07-24T07:24:40;5.60;;;4.90;;
33206;SDS011;19565;46.602;11.534;2023-07-24T07:27:11;8.98;;;5.07;;
33206;SDS011;19565;46.602;11.534;2023-07-24T07:29:39;5.72;;;4.20;;
33206;SDS011;19565;46.602;11.534;2023-07-24T07:32:07;8.82;;;5.93;;
33206;SDS011;19565;46.602;11.534;2023-07-24T07:34:36;7.18;;;5.53;;
33206;SDS011;19565;46.602;11.534;2023-07-24T07:37:05;5.35;;;4.40;;
33206;SDS011;19565;46.602;11.534;2023-07-24T07:39:33;5.07;;;3.88;;
33206;SDS011;19565;46.602;11.534;2023-07-24T07:42:01;6.68;;;4.15;;
33206;SDS011;19565;46.602;11.534;2023-07-24T07:44:45;7.03;;;4.25;;
33206;SDS011;19565;46.602;11.534;2023-07-24T07:47:13;8.60;;;5.28;;
33206;SDS011;19565;46.602;11.534;2023-07-24T07:49:41;6.60;;;5.30;;
33206;SDS011;19565;46.602;11.534;2023-07-24T07:52:09;7.85;;;4.30;;
33206;SDS011;19565;46.602;11.534;2023-07-24T07:54:37;8.95;;;5.72;;
33206;SDS011;19565;46.602;11.534;2023-07-24T07:57:05;5.43;;;3.78;;
33206;SDS011;19565;46.602;11.534;2023-07-24T07:59:35;6.57;;;5.07;;
33206;SDS011;19565;46.602;11.534;2023-07-24T08:02:04;5.60;;;4.15;;
33206;SDS011;19565;46.602;11.534;2023-07-24T08:04:33;6.22;;;5.10;;
33206;SDS011;19565;46.602;11.534;2023-07-24T08:07:01;5.57;;;4.53;;
33206;SDS011;19565;46.602;11.534;2023-07-24T08:09:29;7.07;;;4.45;;
33206;SDS011;19565;46.602;11.534;2023-07-24T08:11:58;5.15;;;3.70;;
33206;SDS011;19565;46.602;11.534;2023-07-24T08:14:27;10.05;;;4.30;;
33206;SDS011;19565;46.602;11.534;2023-07-24T08:16:55;4.65;;;3.75;;
33206;SDS011;19565;46.602;11.534;2023-07-24T08:19:24;7.60;;;5.60;;
33206;SDS011;19565;46.602;11.534;2023-07-24T08:21:55;9.95;;;4.40;;
33206;SDS011;19565;46.602;11.534;2023-07-24T08:24:23;6.05;;;5.25;;
33206;SDS011;19565;46.602;11.534;2023-07-24T08:26:51;7.85;;;6.45;;
33206;SDS011;19565;46.602;11.534;2023-07-24T08:29:20;15.00;;;4.88;;
33206;SDS011;19565;46.602;11.534;2023-07-24T08:31:48;7.07;;;4.47;;
33206;SDS011;19565;46.602;11.534;2023-07-24T08:34:16;6.05;;;3.83;;
33206;SDS011;19565;46.602;11.534;2023-07-24T08:36:46;5.47;;;4.90;;
33206;SDS011;19565;46.602;11.534;2023-07-24T08:39:14;3.83;;;3.47;;
33206;SDS011;19565;46.602;11.534;2023-07-24T08:41:42;6.15;;;5.55;;
33206;SDS011;19565;46.602;11.534;2023-07-24T08:44:10;7.78;;;5.00;;
33206;SDS011;19565;46.602;11.534;2023-07-24T08:46:41;8.45;;;5.28;;
33206;SDS011;19565;46.602;11.534;2023-07-24T08:49:12;7.53;;;5.13;;
33206;SDS011;19565;46.602;11.534;2023-07-24T08:51:41;4.63;;;3.70;;
33206;SDS011;19565;46.602;11.534;2023-07-24T08:54:11;5.93;;;4.72;;
33206;SDS011;19565;46.602;11.534;2023-07-24T08:56:40;8.75;;;6.15;;
33206;SDS011;19565;46.602;11.534;2023-07-24T08:59:08;7.32;;;4.80;;
33206;SDS011;19565;46.602;11.534;2023-07-24T09:01:36;5.15;;;3.92;;
33206;SDS011;19565;46.602;11.534;2023-07-24T09:04:04;3.88;;;3.30;;
33206;SDS011;19565;46.602;11.534;2023-07-24T09:06:33;8.40;;;5.10;;
33206;SDS011;19565;46.602;11.534;2023-07-24T09:09:01;8.43;;;6.15;;
33206;SDS011;19565;46.602;11.534;2023-07-24T09:11:31;7.80;;;6.95;;
33206;SDS011;19565;46.602;11.534;2023-07-24T09:14:00;7.93;;;5.60;;
33206;SDS011;19565;46.602;11.534;2023-07-24T09:16:39;6.70;;;5.38;;
33206;SDS011;19565;46.602;11.534;2023-07-24T09:19:15;6.57;;;5.97;;
33206;SDS011;19565;46.602;11.534;2023-07-24T09:21:52;5.78;;;4.88;;
33206;SDS011;19565;46.602;11.534;2023-07-24T09:24:20;10.20;;;7.28;;
33206;SDS011;19565;46.602;11.534;2023-07-24T09:26:51;6.15;;;5.55;;
33206;SDS011;19565;46.602;11.534;2023-07-24T09:29:29;6.07;;;5.47;;
33206;SDS011;19565;46.602;11.534;2023-07-24T09:31:58;6.55;;;5.43;;
33206;SDS011;19565;46.602;11.534;2023-07-24T09:34:26;6.88;;;5.22;;
33206;SDS011;19565;46.602;11.534;2023-07-24T09:36:55;7.95;;;5.20;;
33206;SDS011;19565;46.602;11.534;2023-07-24T09:39:23;8.20;;;6.25;;
33206;SDS011;19565;46.602;11.534;2023-07-24T09:41:52;4.30;;;3.90;;
33206;SDS011;19565;46.602;11.534;2023-07-24T09:44:21;5.30;;;4.35;;
33206;SDS011;19565;46.602;11.534;2023-07-24T09:46:54;10.52;;;7.00;;
33206;SDS011;19565;46.602;11.534;2023-07-24T09:49:25;4.97;;;4.43;;
33206;SDS011;19565;46.602;11.534;2023-07-24T09:51:54;9.00;;;5.38;;
33206;SDS011;19565;46.602;11.534;2023-07-24T09:54:25;7.55;;;5.65;;
33206;SDS011;19565;46.602;11.534;2023-07-24T09:57:01;5.95;;;4.72;;
33206;SDS011;19565;46.602;11.534;2023-07-24T09:59:46;7.70;;;4.88;;
33206;SDS011;19565;46.602;11.534;2023-07-24T10:02:15;10.27;;;5.45;;
33206;SDS011;19565;46.602;11.534;2023-07-24T10:04:45;5.10;;;4.07;;
33206;SDS011;19565;46.602;11.534;2023-07-24T10:07:14;8.20;;;5.55;;
33206;SDS011;19565;46.602;11.534;2023-07-24T10:09:43;7.05;;;4.65;;
33206;SDS011;19565;46.602;11.534;2023-07-24T10:12:13;4.28;;;3.88;;
33206;SDS011;19565;46.602;11.534;2023-07-24T10:14:42;7.35;;;4.32;;
33206;SDS011;19565;46.602;11.534;2023-07-24T10:17:12;6.00;;;3.50;;
33206;SDS011;19565;46.602;11.534;2023-07-24T10:19:44;9.38;;;5.50;;
33206;SDS011;19565;46.602;11.534;2023-07-24T10:22:16;8.25;;;5.80;;
33206;SDS011;19565;46.602;11.534;2023-07-24T10:24:45;4.60;;;4.15;;
33206;SDS011;19565;46.602;11.534;2023-07-24T10:27:15;10.02;;;5.75;;
33206;SDS011;19565;46.602;11.534;2023-07-24T10:29:43;7.10;;;4.93;;
33206;SDS011;19565;46.602;11.534;2023-07-24T10:32:16;5.13;;;3.85;;
33206;SDS011;19565;46.602;11.534;2023-07-24T10:34:55;5.22;;;4.55;;
33206;SDS011;19565;46.602;11.534;2023-07-24T10:37:33;6.90;;;4.95;;
33206;SDS011;19565;46.602;11.534;2023-07-24T10:40:02;9.15;;;4.45;;
33206;SDS011;19565;46.602;11.534;2023-07-24T10:42:32;9.52;;;6.38;;
33206;SDS011;19565;46.602;11.534;2023-07-24T10:45:04;5.70;;;3.95;;
33206;SDS011;19565;46.602;11.534;2023-07-24T10:47:33;7.03;;;5.03;;
33206;SDS011;19565;46.602;11.534;2023-07-24T10:50:01;8.15;;;4.50;;
33206;SDS011;19565;46.602;11.534;2023-07-24T10:52:30;7.00;;;4.88;;
33206;SDS011;19565;46.602;11.534;2023-07-24T10:55:00;13.07;;;5.85;;
33206;SDS011;19565;46.602;11.534;2023-07-24T10:57:29;7.88;;;5.80;;
33206;SDS011;19565;46.602;11.534;2023-07-24T10:59:59;9.05;;;6.65;;
33206;SDS011;19565;46.602;11.534;2023-07-24T11:02:27;9.95;;;5.53;;
33206;SDS011;19565;46.602;11.534;2023-07-24T11:04:58;6.03;;;4.95;;
33206;SDS011;19565;46.602;11.534;2023-07-24T11:07:31;7.00;;;6.28;;
33206;SDS011;19565;46.602;11.534;2023-07-24T11:10:00;8.27;;;6.22;;
33206;SDS011;19565;46.602;11.534;2023-07-24T11:12:28;7.45;;;6.78;;
33206;SDS011;19565;46.602;11.534;2023-07-24T11:14:59;6.07;;;5.53;;
33206;SDS011;19565;46.602;11.534;2023-07-24T11:17:37;6.40;;;5.80;;
33206;SDS011;19565;46.602;11.534;2023-07-24T11:20:07;10.02;;;6.78;;
33206;SDS011;19565;46.602;11.534;2023-07-24T11:22:37;8.05;;;5.78;;
33206;SDS011;19565;46.602;11.534;2023-07-24T11:25:07;8.63;;;6.80;;
33206;SDS011;19565;46.602;11.534;2023-07-24T11:27:39;6.22;;;5.65;;
33206;SDS011;19565;46.602;11.534;2023-07-24T11:30:11;9.43;;;6.82;;
33206;SDS011;19565;46.602;11.534;2023-07-24T11:32:40;7.82;;;6.20;;
33206;SDS011;19565;46.602;11.534;2023-07-24T11:35:09;8.13;;;7.00;;
33206;SDS011;19565;46.602;11.534;2023-07-24T11:37:39;8.45;;;7.55;;
33206;SDS011;19565;46.602;11.534;2023-07-24T11:40:08;8.77;;;6.55;;
33206;SDS011;19565;46.602;11.534;2023-07-24T11:42:37;6.35;;;5.60;;
33206;SDS011;19565;46.602;11.534;2023-07-24T11:45:07;6.88;;;6.20;;
33206;SDS011;19565;46.602;11.534;2023-07-24T11:47:47;7.30;;;6.53;;
33206;SDS011;19565;46.602;11.534;2023-07-24T11:50:16;8.30;;;6.63;;
33206;SDS011;19565;46.602;11.534;2023-07-24T11:52:45;10.32;;;5.72;;
33206;SDS011;19565;46.602;11.534;2023-07-24T11:55:17;7.47;;;6.45;;
33206;SDS011;19565;46.602;11.534;2023-07-24T11:57:55;5.13;;;3.83;;
33206;SDS011;19565;46.602;11.534;2023-07-24T12:00:23;10.90;;;5.97;;
33206;SDS011;19565;46.602;11.534;2023-07-24T12:02:58;5.70;;;4.30;;
33206;SDS011;19565;46.602;11.534;2023-07-24T12:05:27;9.40;;;6.38;;
33206;SDS011;19565;46.602;11.534;2023-07-24T12:07:59;9.75;;;5.88;;
33206;SDS011;19565;46.602;11.534;2023-07-24T12:10:30;7.82;;;4.50;;
33206;SDS011;19565;46.602;11.534;2023-07-24T12:12:58;7.78;;;5.20;;
33206;SDS011;19565;46.602;11.534;2023-07-24T12:15:26;6.10;;;4.65;;
33206;SDS011;19565;46.602;11.534;2023-07-24T12:17:56;6.10;;;4.97;;
33206;SDS011;19565;46.602;11.534;2023-07-24T12:20:24;7.70;;;7.00;;
33206;SDS011;19565;46.602;11.534;2023-07-24T12:22:52;8.35;;;7.50;;
33206;SDS011;19565;46.602;11.534;2023-07-24T12:25:21;11.35;;;7.90;;
33206;SDS011;19565;46.602;11.534;2023-07-24T12:27:49;7.18;;;6.22;;
33206;SDS011;19565;46.602;11.534;2023-07-24T12:30:17;6.80;;;6.18;;
33206;SDS011;19565;46.602;11.534;2023-07-24T12:32:45;10.68;;;7.78;;
33206;SDS011;19565;46.602;11.534;2023-07-24T12:35:15;8.65;;;6.38;;
33206;SDS011;19565;46.602;11.534;2023-07-24T12:37:43;10.07;;;7.47;;
33206;SDS011;19565;46.602;11.534;2023-07-24T12:40:12;7.53;;;6.63;;
33206;SDS011;19565;46.602;11.534;2023-07-24T12:42:40;11.73;;;6.85;;
33206;SDS011;19565;46.602;11.534;2023-07-24T12:45:08;9.25;;;6.47;;
33206;SDS011;19565;46.602;11.534;2023-07-24T12:47:37;8.57;;;6.72;;
33206;SDS011;19565;46.602;11.534;2023-07-24T12:50:05;11.23;;;5.88;;
33206;SDS011;19565;46.602;11.534;2023-07-24T12:52:35;9.30;;;4.30;;
33206;SDS011;19565;46.602;11.534;2023-07-24T12:55:04;8.18;;;6.53;;
33206;SDS011;19565;46.602;11.534;2023-07-24T12:57:33;14.15;;;5.68;;
33206;SDS011;19565;46.602;11.534;2023-07-24T13:00:01;8.98;;;5.18;;
33206;SDS011;19565;46.602;11.534;2023-07-24T13:02:31;9.00;;;5.30;;
33206;SDS011;19565;46.602;11.534;2023-07-24T13:04:59;7.95;;;3.92;;
33206;SDS011;19565;46.602;11.534;2023-07-24T13:07:27;8.75;;;5.05;;
33206;SDS011;19565;46.602;11.534;2023-07-24T13:09:57;7.63;;;3.83;;
33206;SDS011;19565;46.602;11.534;2023-07-24T13:12:25;9.48;;;5.88;;
33206;SDS011;19565;46.602;11.534;2023-07-24T13:14:53;10.18;;;6.07;;
33206;SDS011;19565;46.602;11.534;2023-07-24T13:48:28;7.32;;;5.20;;
33206;SDS011;19565;46.602;11.534;2023-07-24T13:50:57;8.82;;;5.72;;
33206;SDS011;19565;46.602;11.534;2023-07-24T13:53:25;8.43;;;4.60;;
33206;SDS011;19565;46.602;11.534;2023-07-24T13:55:53;6.22;;;4.45;;
33206;SDS011;19565;46.602;11.534;2023-07-24T13:58:21;4.20;;;3.28;;
33206;SDS011;19565;46.602;11.534;2023-07-24T14:00:49;6.68;;;4.65;;
33206;SDS011;19565;46.602;11.534;2023-07-24T14:03:17;7.68;;;5.22;;
33206;SDS011;19565;46.602;11.534;2023-07-24T14:05:47;5.55;;;4.28;;
33206;SDS011;19565;46.602;11.534;2023-07-24T14:08:15;16.73;;;5.28;;
33206;SDS011;19565;46.602;11.534;2023-07-24T14:10:43;4.90;;;4.10;;
33206;SDS011;19565;46.602;11.534;2023-07-24T14:13:11;7.13;;;4.38;;
33206;SDS011;19565;46.602;11.534;2023-07-24T14:15:39;6.10;;;5.40;;
33206;SDS011;19565;46.602;11.534;2023-07-24T14:18:07;5.80;;;3.80;;
33206;SDS011;19565;46.602;11.534;2023-07-24T14:20:35;6.63;;;4.20;;
33206;SDS011;19565;46.602;11.534;2023-07-24T14:23:07;7.32;;;5.25;;
33206;SDS011;19565;46.602;11.534;2023-07-24T14:25:35;7.03;;;5.25;;
33206;SDS011;19565;46.602;11.534;2023-07-24T14:28:03;5.65;;;4.53;;
33206;SDS011;19565;46.602;11.534;2023-07-24T14:30:31;7.38;;;5.10;;
33206;SDS011;19565;46.602;11.534;2023-07-24T14:32:59;6.30;;;4.50;;
33206;SDS011;19565;46.602;11.534;2023-07-24T14:35:28;7.13;;;5.20;;
33206;SDS011;19565;46.602;11.534;2023-07-24T14:37:56;7.57;;;4.22;;
33206;SDS011;19565;46.602;11.534;2023-07-24T14:40:25;9.60;;;4.95;;
33206;SDS011;19565;46.602;11.534;2023-07-24T14:42:53;5.18;;;4.70;;
33206;SDS011;19565;46.602;11.534;2023-07-24T14:45:21;5.60;;;3.92;;
33206;SDS011;19565;46.602;11.534;2023-07-24T14:47:49;8.23;;;4.10;;
33206;SDS011;19565;46.602;11.534;2023-07-24T14:50:17;9.30;;;5.95;;
33206;SDS011;19565;46.602;11.534;2023-07-24T14:52:45;9.63;;;5.70;;
33206;SDS011;19565;46.602;11.534;2023-07-24T14:55:14;5.70;;;3.78;;
33206;SDS011;19565;46.602;11.534;2023-07-24T14:57:43;5.22;;;4.70;;
33206;SDS011;19565;46.602;11.534;2023-07-24T15:00:12;8.57;;;4.43;;
33206;SDS011;19565;46.602;11.534;2023-07-24T15:02:42;10.15;;;4.25;;
33206;SDS011;19565;46.602;11.534;2023-07-24T15:05:11;6.05;;;3.80;;
33206;SDS011;19565;46.602;11.534;2023-07-24T15:07:39;6.60;;;5.07;;
33206;SDS011;19565;46.602;11.534;2023-07-24T15:10:07;9.63;;;6.25;;
33206;SDS011;19565;46.602;11.534;2023-07-24T15:12:35;7.47;;;5.63;;
33206;SDS011;19565;46.602;11.534;2023-07-24T15:15:05;8.98;;;8.10;;